Time;durP1;ratioP1;P1;durP2;ratioP2;P2;SDS_P1;SDS_P2;PMS_P1;PMS_P2;Temp;Humidity;BMP_temperature;BMP_pressure;BME280_temperature;BME280_humidity;BME280_pressure;Samples;Min_cycle;Max_cycle;Signal;HPM_P1;HPM_P2
2022/08/27 00:01:43;;;;;;;8.87;7.90;;;25.00;99.90;;;;;;4944668;29;20835;-82
2022/08/27 00:04:12;;;;;;;10.27;9.20;;;25.00;99.90;;;;;;4934904;29;20484;-82
2022/08/27 00:06:40;;;;;;;11.60;9.27;;;25.00;99.90;;;;;;4934761;29;20453;-82
2022/08/27 00:09:09;;;;;;;10.00;9.00;;;25.00;99.90;;;;;;4946277;29;20471;-82
2022/08/27 00:11:38;;;;;;;11.20;9.17;;;25.00;99.90;;;;;;4953306;29;20490;-82
2022/08/27 00:14:06;;;;;;;11.17;9.10;;;25.00;99.90;;;;;;4953611;28;20484;-82
2022/08/27 00:16:34;;;;;;;14.30;10.80;;;25.00;99.90;;;;;;4954018;29;20483;-82
2022/08/27 00:19:03;;;;;;;10.60;9.50;;;25.00;99.90;;;;;;4938466;29;20516;-82
2022/08/27 00:21:31;;;;;;;13.13;10.80;;;25.00;99.90;;;;;;4952535;29;20503;-82
2022/08/27 00:24:00;;;;;;;14.90;11.73;;;24.90;99.90;;;;;;4934399;29;20461;-82
2022/08/27 00:26:28;;;;;;;13.63;12.20;;;24.90;99.90;;;;;;4945938;29;20467;-81
2022/08/27 00:28:58;;;;;;;13.50;11.80;;;25.00;99.90;;;;;;4953322;29;20444;-81
2022/08/27 00:31:26;;;;;;;15.93;12.30;;;24.90;99.90;;;;;;4952776;29;20867;-82
2022/08/27 00:33:55;;;;;;;11.83;10.73;;;25.00;99.90;;;;;;4953597;28;20566;-82
2022/08/27 00:36:24;;;;;;;13.27;11.60;;;24.90;99.90;;;;;;4952988;29;20499;-82
2022/08/27 00:38:53;;;;;;;14.57;11.60;;;25.00;99.90;;;;;;4953540;29;20468;-82
2022/08/27 00:41:22;;;;;;;13.33;11.33;;;24.90;99.90;;;;;;4953793;28;20456;-82
2022/08/27 00:43:53;;;;;;;12.17;10.80;;;24.90;99.90;;;;;;4952803;28;20456;-82
2022/08/27 00:46:26;;;;;;;15.67;12.40;;;25.00;99.90;;;;;;4953660;29;20451;-81
2022/08/27 00:48:58;;;;;;;13.00;11.43;;;24.90;99.90;;;;;;4951855;29;20471;-82
2022/08/27 00:51:27;;;;;;;13.40;12.00;;;24.90;99.90;;;;;;4951273;29;20444;-82
2022/08/27 00:53:57;;;;;;;16.07;12.57;;;24.90;99.90;;;;;;4940290;28;20444;-81
2022/08/27 00:56:31;;;;;;;16.20;12.80;;;24.90;99.90;;;;;;4952920;29;20484;-82
2022/08/27 00:59:02;;;;;;;13.60;11.50;;;24.90;99.90;;;;;;4951838;29;20456;-82
2022/08/27 01:01:34;;;;;;;13.37;11.60;;;24.90;99.90;;;;;;4953267;29;20475;-82
2022/08/27 01:04:05;;;;;;;15.50;11.10;;;24.90;99.90;;;;;;4952864;28;20574;-82
2022/08/27 01:06:37;;;;;;;14.20;12.60;;;24.90;99.90;;;;;;4953549;28;20950;-82
2022/08/27 01:09:08;;;;;;;14.73;11.67;;;24.90;99.90;;;;;;4944621;29;20460;-81
2022/08/27 01:11:36;;;;;;;14.07;11.77;;;24.90;99.90;;;;;;4932853;29;21147;-81
2022/08/27 01:14:05;;;;;;;14.93;11.13;;;24.90;99.90;;;;;;4933058;29;20491;-82
2022/08/27 01:16:38;;;;;;;15.33;11.57;;;24.90;99.90;;;;;;4933553;29;21012;-82
2022/08/27 01:19:16;;;;;;;13.23;11.13;;;24.90;99.90;;;;;;4950403;29;20461;-82
2022/08/27 01:21:50;;;;;;;14.17;11.30;;;24.90;99.90;;;;;;4952624;29;20476;-82
2022/08/27 01:24:32;;;;;;;13.10;11.57;;;24.90;99.90;;;;;;4951968;28;20974;-82
2022/08/27 01:27:02;;;;;;;12.67;10.47;;;25.00;99.90;;;;;;4937899;29;20456;-81
2022/08/27 01:29:31;;;;;;;13.23;10.40;;;25.00;99.90;;;;;;4936896;29;20451;-82
2022/08/27 01:32:05;;;;;;;15.00;11.40;;;25.00;99.90;;;;;;4951983;29;20475;-82
2022/08/27 01:34:33;;;;;;;14.43;12.30;;;25.00;99.90;;;;;;4952323;28;21003;-81
2022/08/27 01:37:03;;;;;;;12.40;11.07;;;25.00;99.90;;;;;;4952425;29;20480;-81
2022/08/27 01:39:33;;;;;;;11.30;9.97;;;25.00;99.90;;;;;;4952475;29;20460;-82
2022/08/27 01:42:07;;;;;;;13.63;11.77;;;25.00;99.90;;;;;;4952499;29;20456;-81
2022/08/27 01:44:43;;;;;;;13.50;11.03;;;24.90;99.90;;;;;;4932682;29;20481;-82
2022/08/27 01:47:12;;;;;;;14.80;11.80;;;25.00;99.90;;;;;;4933123;29;20531;-82
2022/08/27 01:49:40;;;;;;;13.63;11.50;;;24.90;99.90;;;;;;4933098;29;20487;-82
2022/08/27 01:52:08;;;;;;;17.90;11.43;;;25.00;99.90;;;;;;4949129;28;20459;-81
2022/08/27 01:54:38;;;;;;;15.83;12.87;;;25.00;99.90;;;;;;4950939;28;20469;-82
2022/08/27 01:57:06;;;;;;;14.23;11.47;;;24.90;99.90;;;;;;4937269;29;20487;-81
2022/08/27 01:59:34;;;;;;;18.40;13.03;;;25.00;99.90;;;;;;4942768;29;20457;-82
2022/08/27 02:02:08;;;;;;;17.57;13.60;;;24.90;99.90;;;;;;4936785;29;20488;-82
2022/08/27 02:04:36;;;;;;;14.47;12.93;;;24.90;99.90;;;;;;4952047;28;20484;-82
2022/08/27 02:07:04;;;;;;;16.83;12.60;;;24.80;99.90;;;;;;4952252;29;20447;-82
2022/08/27 02:09:33;;;;;;;15.13;11.03;;;24.80;99.90;;;;;;4951754;29;20510;-82
2022/08/27 02:12:03;;;;;;;15.57;11.30;;;24.80;99.90;;;;;;4951460;29;20464;-82
2022/08/27 02:14:31;;;;;;;15.73;13.07;;;24.90;99.90;;;;;;4951656;28;21234;-82
2022/08/27 02:17:00;;;;;;;17.43;13.83;;;24.80;99.90;;;;;;4946360;29;20492;-82
2022/08/27 02:19:28;;;;;;;14.90;12.30;;;24.80;99.90;;;;;;4944982;28;20515;-82
2022/08/27 02:21:59;;;;;;;16.53;12.43;;;24.80;99.90;;;;;;4947748;29;20469;-82
2022/08/27 02:24:28;;;;;;;17.80;13.47;;;24.80;99.90;;;;;;4943678;28;20538;-82
2022/08/27 02:26:56;;;;;;;14.77;12.70;;;24.70;99.90;;;;;;4951695;29;20459;-82
2022/08/27 02:29:26;;;;;;;15.57;12.50;;;24.70;1.00;;;;;;4951666;28;20470;-81
2022/08/27 02:31:54;;;;;;;13.30;11.70;;;24.70;1.00;;;;;;4951331;29;20447;-81
2022/08/27 02:34:23;;;;;;;15.10;11.97;;;24.70;1.00;;;;;;4950096;28;20542;-81
2022/08/27 02:36:51;;;;;;;18.20;13.90;;;24.70;1.00;;;;;;4946670;28;20503;-82
2022/08/27 02:39:19;;;;;;;14.93;11.87;;;24.70;99.90;;;;;;4952375;29;20452;-81
2022/08/27 02:41:48;;;;;;;13.47;11.70;;;24.70;99.90;;;;;;4952594;29;20499;-82
2022/08/27 02:44:16;;;;;;;15.10;11.20;;;24.70;99.90;;;;;;4951700;28;20491;-82
2022/08/27 02:46:46;;;;;;;10.40;9.40;;;24.70;1.00;;;;;;4952338;28;20511;-82
2022/08/27 02:49:16;;;;;;;11.87;9.10;;;24.70;99.90;;;;;;4956075;29;20530;-82
2022/08/27 02:51:45;;;;;;;9.83;8.90;;;24.60;99.90;;;;;;4956432;29;20463;-81
2022/08/27 02:54:13;;;;;;;9.97;8.97;;;24.60;99.90;;;;;;4955488;28;20476;-82
2022/08/27 02:56:41;;;;;;;11.83;9.97;;;24.60;99.90;;;;;;4955579;29;20480;-82
2022/08/27 02:59:09;;;;;;;12.33;10.60;;;24.60;99.90;;;;;;4943403;29;20948;-82
2022/08/27 03:01:38;;;;;;;13.53;11.17;;;24.60;99.90;;;;;;4941176;29;20831;-82
2022/08/27 03:04:07;;;;;;;14.43;11.50;;;24.70;1.00;;;;;;4955453;28;20483;-81
2022/08/27 03:06:36;;;;;;;11.93;10.73;;;24.60;1.00;;;;;;4955457;28;20555;-82
2022/08/27 03:09:04;;;;;;;13.93;11.40;;;24.60;1.00;;;;;;4939256;29;21173;-81
2022/08/27 03:11:32;;;;;;;13.63;11.70;;;24.60;99.90;;;;;;4953439;29;21400;-83
2022/08/27 03:14:00;;;;;;;14.30;12.77;;;24.60;99.90;;;;;;4954927;28;20487;-82
2022/08/27 03:16:29;;;;;;;13.50;12.03;;;24.60;99.90;;;;;;4955104;28;20538;-82
2022/08/27 03:18:56;;;;;;;13.93;11.30;;;24.50;99.90;;;;;;4955729;29;20819;-82
2022/08/27 03:21:26;;;;;;;14.70;13.00;;;24.50;99.90;;;;;;4955413;28;20829;-82
2022/08/27 03:23:54;;;;;;;16.17;13.33;;;24.50;1.00;;;;;;4954216;28;20495;-82
2022/08/27 03:26:22;;;;;;;13.57;11.60;;;24.50;99.90;;;;;;4936653;29;20477;-82
2022/08/27 03:28:51;;;;;;;15.00;10.90;;;24.50;99.90;;;;;;4936017;29;20464;-82
2022/08/27 03:31:25;;;;;;;12.47;11.17;;;24.40;99.90;;;;;;4934794;29;20460;-82
2022/08/27 03:33:55;;;;;;;11.30;9.57;;;24.40;99.90;;;;;;4938098;28;20457;-82
2022/08/27 03:36:26;;;;;;;14.83;11.73;;;24.40;99.90;;;;;;4949558;29;20480;-82
2022/08/27 03:38:54;;;;;;;13.87;12.33;;;24.40;99.90;;;;;;4935722;29;20965;-82
2022/08/27 03:41:23;;;;;;;15.43;12.97;;;24.40;99.90;;;;;;4953455;29;20485;-82
2022/08/27 03:44:11;;;;;;;15.47;13.87;;;24.40;99.90;;;;;;4939235;29;20582;-81
2022/08/27 03:46:49;;;;;;;15.63;14.03;;;24.40;99.90;;;;;;4934914;29;20463;-81
2022/08/27 03:49:17;;;;;;;20.03;16.73;;;24.30;99.90;;;;;;4951542;29;20468;-82
2022/08/27 03:51:53;;;;;;;18.47;16.47;;;24.40;99.90;;;;;;4954786;29;20456;-82
2022/08/27 03:54:21;;;;;;;21.03;18.23;;;24.30;99.90;;;;;;4954270;28;20488;-82
2022/08/27 03:56:49;;;;;;;21.90;19.30;;;24.30;99.90;;;;;;4951826;28;20480;-82
2022/08/27 03:59:17;;;;;;;22.33;20.13;;;24.30;99.90;;;;;;4943366;28;20472;-82
2022/08/27 04:01:46;;;;;;;27.90;25.00;;;24.30;99.90;;;;;;4946283;29;20460;-82
2022/08/27 04:04:14;;;;;;;29.27;25.97;;;24.30;99.90;;;;;;4953150;28;21045;-82
2022/08/27 04:06:42;;;;;;;30.27;27.07;;;24.30;99.90;;;;;;4953082;29;20475;-81
2022/08/27 04:09:12;;;;;;;31.80;28.40;;;24.20;99.90;;;;;;4953479;29;20456;-81
2022/08/27 04:11:40;;;;;;;33.27;29.10;;;24.20;99.90;;;;;;4952401;29;20877;-82
2022/08/27 04:14:08;;;;;;;33.83;30.23;;;24.30;99.90;;;;;;4952819;28;20484;-82
2022/08/27 04:16:54;;;;;;;33.20;28.93;;;24.30;99.90;;;;;;4950323;29;20471;-82
2022/08/27 04:19:23;;;;;;;39.53;32.20;;;24.30;99.90;;;;;;4933156;29;20477;-82
2022/08/27 04:22:00;;;;;;;37.07;33.20;;;24.30;99.90;;;;;;4937185;29;20495;-82
2022/08/27 04:24:31;;;;;;;37.23;33.33;;;24.30;99.90;;;;;;4953837;28;20628;-82
2022/08/27 04:27:00;;;;;;;37.67;32.37;;;24.30;99.90;;;;;;4953753;29;20986;-81
2022/08/27 04:29:28;;;;;;;36.57;32.33;;;24.30;99.90;;;;;;4952222;29;20483;-82
2022/08/27 04:31:57;;;;;;;36.40;31.40;;;24.20;99.90;;;;;;4952665;29;20460;-81
2022/08/27 04:34:26;;;;;;;42.47;31.50;;;24.30;99.90;;;;;;4944554;28;20492;-82
2022/08/27 04:36:56;;;;;;;31.77;28.33;;;24.30;99.90;;;;;;4953546;28;20460;-82
2022/08/27 04:39:25;;;;;;;35.40;30.33;;;24.30;99.90;;;;;;4953645;29;20471;-82
2022/08/27 04:41:58;;;;;;;38.73;30.67;;;24.30;99.90;;;;;;4953627;29;20886;-82
2022/08/27 04:44:29;;;;;;;31.00;27.77;;;24.30;99.90;;;;;;4953375;28;20487;-82
2022/08/27 04:46:59;;;;;;;31.63;28.33;;;24.30;99.90;;;;;;4952137;29;20460;-81
2022/08/27 04:49:29;;;;;;;30.90;27.50;;;24.30;99.90;;;;;;4952934;28;20530;-82
2022/08/27 04:51:58;;;;;;;31.57;26.87;;;24.30;99.90;;;;;;4953561;29;20446;-82
2022/08/27 04:54:27;;;;;;;32.47;27.17;;;24.30;99.90;;;;;;4951378;28;20488;-82
2022/08/27 04:57:01;;;;;;;32.67;26.37;;;24.30;99.90;;;;;;4953429;29;20487;-82
2022/08/27 04:59:31;;;;;;;30.83;26.67;;;24.30;99.90;;;;;;4953143;29;20470;-82
2022/08/27 05:02:00;;;;;;;30.80;25.57;;;24.30;99.90;;;;;;4950599;29;21045;-82
2022/08/27 05:04:34;;;;;;;34.20;25.20;;;24.20;99.90;;;;;;4943321;28;20479;-82
2022/08/27 05:07:02;;;;;;;36.43;26.60;;;24.30;99.90;;;;;;4951214;29;20467;-82
2022/08/27 05:09:30;;;;;;;31.67;24.57;;;24.20;99.90;;;;;;4952741;28;20455;-83
2022/08/27 05:12:00;;;;;;;31.97;25.57;;;24.20;1.00;;;;;;4951611;29;20459;-82
2022/08/27 05:14:31;;;;;;;30.10;25.10;;;24.20;1.00;;;;;;4952584;28;20519;-81
2022/08/27 05:17:00;;;;;;;33.27;25.17;;;24.20;1.00;;;;;;4952843;29;20826;-81
2022/08/27 05:19:28;;;;;;;31.33;26.00;;;24.20;99.90;;;;;;4946381;29;20495;-81
2022/08/27 05:21:56;;;;;;;31.50;24.70;;;24.20;1.00;;;;;;4960181;28;20892;-82
2022/08/27 05:24:25;;;;;;;30.80;25.57;;;24.20;1.00;;;;;;4959751;28;20472;-82
2022/08/27 05:26:53;;;;;;;32.23;23.80;;;24.20;1.00;;;;;;4952602;29;20460;-82
2022/08/27 05:29:23;;;;;;;29.83;25.53;;;24.20;1.00;;;;;;4952639;28;20539;-82
2022/08/27 05:31:51;;;;;;;29.67;24.57;;;24.20;1.00;;;;;;4952357;28;20535;-82
2022/08/27 05:34:20;;;;;;;33.20;24.47;;;24.20;1.00;;;;;;4951923;28;20474;-81
2022/08/27 05:36:53;;;;;;;32.10;24.67;;;24.20;1.00;;;;;;4952580;29;20444;-81
2022/08/27 05:39:21;;;;;;;36.40;25.60;;;24.20;1.00;;;;;;4952238;29;20480;-82
2022/08/27 05:41:51;;;;;;;29.73;22.40;;;24.20;1.00;;;;;;4939317;28;20543;-82
2022/08/27 05:44:19;;;;;;;26.90;22.20;;;24.20;1.00;;;;;;4938939;28;20572;-81
2022/08/27 05:47:09;;;;;;;30.13;21.30;;;24.20;1.00;;;;;;4952219;29;20463;-82
2022/08/27 05:49:38;;;;;;;28.83;23.47;;;24.20;1.00;;;;;;4950979;29;20472;-82
2022/08/27 05:52:09;;;;;;;32.33;23.97;;;24.20;1.00;;;;;;4952473;29;20566;-82
2022/08/27 05:54:38;;;;;;;24.57;21.10;;;24.20;1.00;;;;;;4951040;28;20467;-82
2022/08/27 05:57:06;;;;;;;27.53;20.63;;;24.30;1.00;;;;;;4951328;29;20458;-82
2022/08/27 06:02:22;;;;;;;25.20;20.47;;;24.30;1.00;;;;;;4950292;28;20464;-82
2022/08/27 06:04:52;;;;;;;27.50;21.87;;;24.30;1.00;;;;;;4950792;28;20486;-82
2022/08/27 06:07:20;;;;;;;26.10;20.17;;;24.40;1.00;;;;;;4950507;29;20456;-82
2022/08/27 06:09:48;;;;;;;22.77;19.20;;;24.40;1.00;;;;;;4951485;28;20452;-82
2022/08/27 06:12:16;;;;;;;29.43;21.73;;;24.40;1.00;;;;;;4951434;29;20452;-82
2022/08/27 06:14:44;;;;;;;25.20;21.07;;;24.40;1.00;;;;;;4946104;28;20476;-82
2022/08/27 06:17:12;;;;;;;25.07;20.40;;;24.40;1.00;;;;;;4939907;29;20483;-82
2022/08/27 06:19:42;;;;;;;26.17;19.30;;;24.40;1.00;;;;;;4951135;28;20535;-82
2022/08/27 06:22:10;;;;;;;29.80;21.80;;;24.40;1.00;;;;;;4948894;29;20451;-82
2022/08/27 06:24:39;;;;;;;26.43;21.47;;;24.40;1.00;;;;;;4942853;28;21041;-82
2022/08/27 06:27:10;;;;;;;26.07;19.63;;;24.40;1.00;;;;;;4952117;28;20460;-82
2022/08/27 06:29:38;;;;;;;25.40;20.40;;;24.40;1.00;;;;;;4951697;28;20448;-82
2022/08/27 06:32:07;;;;;;;25.47;20.80;;;24.40;1.00;;;;;;4949641;28;20444;-82
2022/08/27 06:34:37;;;;;;;29.37;21.10;;;24.50;1.00;;;;;;4950990;28;21216;-82
2022/08/27 06:37:07;;;;;;;23.87;19.83;;;24.40;1.00;;;;;;4951602;29;20971;-81
2022/08/27 06:39:36;;;;;;;24.90;18.87;;;24.40;1.00;;;;;;4951493;28;20486;-82
2022/08/27 06:42:05;;;;;;;22.73;18.30;;;24.50;1.00;;;;;;4951466;28;20538;-81
2022/08/27 06:44:34;;;;;;;29.43;21.90;;;24.50;1.00;;;;;;4951236;28;20502;-82
2022/08/27 06:47:03;;;;;;;30.70;20.43;;;24.50;1.00;;;;;;4950780;29;20460;-82
2022/08/27 06:49:32;;;;;;;22.33;18.40;;;24.50;1.00;;;;;;4950965;29;20455;-82
2022/08/27 06:52:01;;;;;;;21.20;18.67;;;24.50;1.00;;;;;;4951710;28;21164;-81
2022/08/27 06:54:31;;;;;;;24.73;20.53;;;24.50;1.00;;;;;;4950654;28;20486;-82
2022/08/27 06:56:59;;;;;;;24.57;19.30;;;24.50;1.00;;;;;;4951511;28;20475;-82
2022/08/27 06:59:27;;;;;;;22.27;19.60;;;24.50;1.00;;;;;;4949610;29;20530;-81
2022/08/27 07:01:56;;;;;;;20.23;16.60;;;24.50;1.00;;;;;;4951411;28;20522;-82
2022/08/27 07:04:26;;;;;;;20.37;17.30;;;24.50;1.00;;;;;;4951125;28;20930;-82
2022/08/27 07:07:00;;;;;;;19.60;17.43;;;24.50;1.00;;;;;;4949583;29;20451;-82
2022/08/27 07:09:31;;;;;;;20.20;18.03;;;24.60;1.00;;;;;;4951867;29;20455;-81
2022/08/27 07:12:00;;;;;;;21.87;18.40;;;24.60;1.00;;;;;;4950544;29;20470;-82
2022/08/27 07:14:28;;;;;;;20.20;17.97;;;24.50;1.00;;;;;;4950745;28;20491;-82
2022/08/27 07:17:02;;;;;;;21.33;16.73;;;24.60;1.00;;;;;;4951383;28;20462;-82
2022/08/27 07:19:31;;;;;;;16.93;15.13;;;24.60;1.00;;;;;;4947133;29;20480;-83
2022/08/27 07:22:00;;;;;;;18.50;16.57;;;24.60;1.00;;;;;;4931973;29;20473;-82
2022/08/27 07:24:30;;;;;;;16.97;14.93;;;24.60;1.00;;;;;;4931608;29;20492;-82
2022/08/27 07:26:58;;;;;;;17.50;15.77;;;24.60;1.00;;;;;;4932000;29;20545;-81
2022/08/27 07:29:27;;;;;;;19.00;15.77;;;24.60;1.00;;;;;;4931871;29;20662;-82
2022/08/27 07:31:59;;;;;;;15.60;13.07;;;24.60;1.00;;;;;;4935169;29;20456;-83
2022/08/27 07:34:27;;;;;;;18.77;16.87;;;24.60;1.00;;;;;;4953271;28;20482;-82
2022/08/27 07:36:55;;;;;;;18.27;15.87;;;24.70;1.00;;;;;;4944315;29;20964;-82
2022/08/27 07:39:24;;;;;;;16.57;14.77;;;24.70;1.00;;;;;;4951962;29;20850;-82
2022/08/27 07:44:41;;;;;;;17.93;14.90;;;24.80;1.00;;;;;;4953880;28;20480;-82
2022/08/27 07:47:09;;;;;;;17.73;14.70;;;24.80;1.00;;;;;;4954724;29;20479;-82
2022/08/27 07:49:37;;;;;;;20.07;15.73;;;24.80;1.00;;;;;;4955008;28;20511;-81
2022/08/27 07:52:06;;;;;;;20.40;14.77;;;24.80;1.00;;;;;;4954322;29;20448;-82
2022/08/27 07:54:34;;;;;;;21.80;15.47;;;24.80;1.00;;;;;;4953877;28;20480;-82
2022/08/27 07:57:04;;;;;;;21.50;15.53;;;24.80;1.00;;;;;;4949314;29;20475;-82
2022/08/27 07:59:32;;;;;;;18.30;15.40;;;24.80;1.00;;;;;;4954135;29;20490;-82
2022/08/27 08:02:01;;;;;;;22.80;14.33;;;24.80;1.00;;;;;;4953941;28;20523;-81
2022/08/27 08:04:29;;;;;;;21.40;17.67;;;24.80;1.00;;;;;;4953864;28;20486;-81
2022/08/27 08:06:57;;;;;;;20.17;16.43;;;24.80;1.00;;;;;;4954177;28;20479;-79
2022/08/27 08:09:25;;;;;;;18.23;15.70;;;24.80;1.00;;;;;;4953933;29;20510;-81
2022/08/27 08:11:54;;;;;;;18.97;16.33;;;24.80;1.00;;;;;;4953169;29;20456;-81
2022/08/27 08:14:24;;;;;;;20.60;16.27;;;24.80;1.00;;;;;;4947789;28;20534;-81
2022/08/27 08:16:52;;;;;;;22.20;16.97;;;24.80;1.00;;;;;;4953637;28;20491;-82
2022/08/27 08:19:20;;;;;;;20.33;17.87;;;24.80;1.00;;;;;;4953854;28;20511;-80
2022/08/27 08:21:48;;;;;;;25.60;16.40;;;24.80;1.00;;;;;;4953716;29;20510;-82
2022/08/27 08:24:24;;;;;;;20.40;16.77;;;24.80;1.00;;;;;;4952630;28;21222;-80
2022/08/27 08:26:52;;;;;;;21.73;17.17;;;24.80;1.00;;;;;;4954040;29;20472;-82
2022/08/27 08:29:20;;;;;;;21.60;17.67;;;24.80;1.00;;;;;;4954244;29;20459;-82
2022/08/27 08:31:50;;;;;;;22.40;17.10;;;24.80;1.00;;;;;;4940178;29;20475;-81
2022/08/27 08:34:19;;;;;;;17.23;15.00;;;24.80;1.00;;;;;;4953311;28;20480;-81
2022/08/27 08:36:47;;;;;;;16.97;15.20;;;24.90;1.00;;;;;;4953622;29;20460;-80
2022/08/27 08:39:22;;;;;;;21.80;17.00;;;24.90;1.00;;;;;;4953560;28;20569;-82
2022/08/27 08:41:53;;;;;;;19.80;15.50;;;24.80;1.00;;;;;;4962110;28;20467;-81
2022/08/27 08:44:31;;;;;;;20.27;18.17;;;24.90;1.00;;;;;;4954546;28;20487;-82
2022/08/27 08:47:04;;;;;;;21.70;17.63;;;25.40;1.00;;;;;;4958937;28;20458;-81
2022/08/27 08:49:46;;;;;;;22.13;15.93;;;24.90;1.00;;;;;;4957748;28;20551;-81
2022/08/27 08:52:32;;;;;;;18.17;16.23;;;24.90;1.00;;;;;;4953425;29;20920;-81
2022/08/27 08:55:08;;;;;;;21.57;17.67;;;24.90;1.00;;;;;;4951145;28;20495;-81
2022/08/27 08:57:40;;;;;;;23.73;17.60;;;25.00;1.00;;;;;;4953386;28;20454;-81
2022/08/27 09:00:12;;;;;;;18.80;16.20;;;25.00;1.00;;;;;;4951824;29;20482;-82
2022/08/27 09:02:49;;;;;;;21.87;16.67;;;25.00;1.00;;;;;;4952905;28;21018;-82
2022/08/27 09:05:17;;;;;;;23.53;18.90;;;25.00;1.00;;;;;;4953213;28;20476;-82
2022/08/27 09:07:55;;;;;;;26.87;19.67;;;25.00;1.00;;;;;;4953026;29;20459;-82
2022/08/27 09:10:48;;;;;;;25.33;18.23;;;25.00;1.00;;;;;;4952796;28;20444;-82
2022/08/27 09:13:22;;;;;;;21.47;17.20;;;25.00;1.00;;;;;;4951963;29;20840;-82
2022/08/27 09:15:54;;;;;;;20.33;18.13;;;25.00;1.00;;;;;;4953011;28;20912;-83
2022/08/27 09:18:24;;;;;;;21.33;16.47;;;25.00;1.00;;;;;;4950888;29;20452;-81
2022/08/27 09:21:03;;;;;;;20.63;17.57;;;24.90;1.00;;;;;;4951674;29;20487;-81
2022/08/27 09:23:44;;;;;;;22.60;15.57;;;25.00;1.00;;;;;;4933469;29;20552;-82
2022/08/27 09:26:25;;;;;;;20.60;15.93;;;25.00;1.00;;;;;;4933567;29;20476;-82
2022/08/27 09:29:16;;;;;;;20.57;17.10;;;25.00;1.00;;;;;;4931982;29;20831;-82
2022/08/27 09:31:47;;;;;;;22.50;17.17;;;25.00;1.00;;;;;;4941903;29;20455;-82
2022/08/27 09:34:16;;;;;;;18.80;15.93;;;25.00;1.00;;;;;;4952178;28;20999;-82
2022/08/27 09:37:00;;;;;;;23.10;18.10;;;25.00;1.00;;;;;;4952454;29;20459;-81
2022/08/27 09:39:33;;;;;;;18.80;15.80;;;25.00;1.00;;;;;;4941188;29;20459;-81
2022/08/27 09:42:03;;;;;;;22.10;17.07;;;24.90;1.00;;;;;;4933469;29;20513;-81
2022/08/27 09:44:32;;;;;;;26.63;18.30;;;25.00;1.00;;;;;;4932899;29;20476;-81
2022/08/27 09:47:02;;;;;;;23.43;17.37;;;24.90;1.00;;;;;;4933528;29;20460;-82
2022/08/27 09:49:35;;;;;;;19.63;15.60;;;25.00;1.00;;;;;;4939823;29;20471;-82
2022/08/27 09:52:04;;;;;;;25.50;16.70;;;24.90;1.00;;;;;;4952133;29;20469;-82
2022/08/27 09:54:42;;;;;;;21.07;15.60;;;24.90;1.00;;;;;;4951586;28;20472;-82
2022/08/27 09:57:12;;;;;;;18.67;14.33;;;24.90;1.00;;;;;;4936735;29;20468;-82
2022/08/27 09:59:43;;;;;;;18.27;14.80;;;24.80;1.00;;;;;;4941699;29;20451;-83
2022/08/27 10:02:17;;;;;;;17.70;13.63;;;24.90;1.00;;;;;;4952300;28;20849;-82
2022/08/27 10:04:49;;;;;;;19.63;14.77;;;24.90;1.00;;;;;;4951518;28;20491;-83
2022/08/27 10:07:29;;;;;;;19.97;15.83;;;24.90;1.00;;;;;;4952546;29;20530;-83
2022/08/27 10:10:04;;;;;;;16.13;14.13;;;24.90;1.00;;;;;;4952525;28;20524;-81
2022/08/27 10:12:40;;;;;;;18.30;14.37;;;24.80;1.00;;;;;;4951281;28;20471;-82
2022/08/27 10:15:13;;;;;;;19.87;15.40;;;24.80;1.00;;;;;;4951697;28;20475;-83
2022/08/27 10:17:51;;;;;;;15.53;13.60;;;24.80;1.00;;;;;;4952378;29;20534;-83
2022/08/27 10:20:29;;;;;;;16.07;13.27;;;24.80;1.00;;;;;;4952173;29;20480;-82
2022/08/27 10:23:08;;;;;;;22.50;14.27;;;24.80;1.00;;;;;;4952451;29;20823;-82
2022/08/27 10:25:43;;;;;;;17.80;13.47;;;24.90;1.00;;;;;;4952169;28;20479;-82
2022/08/27 10:28:23;;;;;;;15.83;13.80;;;24.80;1.00;;;;;;4951889;28;20452;-83
2022/08/27 10:31:04;;;;;;;15.70;12.97;;;24.80;1.00;;;;;;4951316;28;20538;-83
2022/08/27 10:33:40;;;;;;;11.70;10.40;;;24.80;1.00;;;;;;4951262;28;20448;-82
2022/08/27 10:36:16;;;;;;;14.27;10.30;;;24.80;1.00;;;;;;4951449;28;20494;-83
2022/08/27 10:38:53;;;;;;;9.57;8.57;;;24.80;1.00;;;;;;4952285;29;20482;-82
2022/08/27 10:41:27;;;;;;;8.87;8.00;;;24.80;1.00;;;;;;4951672;29;20487;-83
2022/08/27 10:44:13;;;;;;;9.80;8.60;;;24.80;1.00;;;;;;4950284;28;20963;-82
2022/08/27 10:46:53;;;;;;;8.93;8.13;;;24.80;1.00;;;;;;4951031;29;20448;-83
2022/08/27 10:49:31;;;;;;;9.20;8.40;;;24.90;1.00;;;;;;4938948;29;20453;-83
2022/08/27 10:52:13;;;;;;;7.47;6.87;;;24.90;1.00;;;;;;4952032;29;20447;-83
2022/08/27 10:54:50;;;;;;;7.93;7.20;;;24.90;1.00;;;;;;4951042;28;21050;-82
2022/08/27 10:57:28;;;;;;;7.43;6.63;;;24.90;1.00;;;;;;4951897;28;20463;-82
2022/08/27 11:00:19;;;;;;;9.33;8.40;;;25.00;1.00;;;;;;4950626;29;20836;-81
2022/08/27 11:02:52;;;;;;;11.47;10.47;;;24.90;1.00;;;;;;4951500;29;20876;-83
2022/08/27 11:05:26;;;;;;;10.00;8.50;;;24.90;1.00;;;;;;4942204;28;20492;-82
2022/08/27 11:08:02;;;;;;;9.40;8.40;;;24.90;1.00;;;;;;4937815;29;20448;-82
2022/08/27 11:10:33;;;;;;;9.93;8.57;;;24.90;1.00;;;;;;4940493;29;20456;-82
2022/08/27 11:13:08;;;;;;;10.10;8.67;;;24.90;1.00;;;;;;4955018;29;20458;-80
2022/08/27 11:15:38;;;;;;;11.13;10.03;;;24.90;1.00;;;;;;4955136;28;20478;-82
2022/08/27 11:18:15;;;;;;;9.87;8.50;;;25.00;1.00;;;;;;4955168;29;20447;-82
2022/08/27 11:20:48;;;;;;;9.00;8.20;;;25.00;1.00;;;;;;4949459;29;20448;-82
2022/08/27 11:23:21;;;;;;;9.90;8.60;;;25.00;1.00;;;;;;4942878;29;20447;-82
2022/08/27 11:25:54;;;;;;;10.30;8.50;;;24.90;1.00;;;;;;4954841;28;20907;-80
2022/08/27 11:28:36;;;;;;;10.20;9.00;;;25.00;1.00;;;;;;4955368;28;20459;-82
2022/08/27 11:31:13;;;;;;;12.07;9.47;;;25.00;1.00;;;;;;4954754;28;20451;-82
2022/08/27 11:33:52;;;;;;;9.97;8.87;;;25.10;1.00;;;;;;4954035;29;20462;-81
2022/08/27 11:36:48;;;;;;;9.63;8.63;;;25.00;1.00;;;;;;4954887;29;20456;-82
2022/08/27 11:39:39;;;;;;;10.33;9.27;;;25.00;1.00;;;;;;4953617;28;20504;-82
2022/08/27 11:42:16;;;;;;;9.93;8.90;;;25.00;1.00;;;;;;4950200;29;20507;-82
2022/08/27 11:44:49;;;;;;;10.13;9.23;;;25.00;1.00;;;;;;4954920;28;20467;-82
2022/08/27 11:47:21;;;;;;;10.40;9.30;;;25.00;1.00;;;;;;4954803;29;20491;-82
2022/08/27 11:49:52;;;;;;;11.10;9.43;;;25.00;1.00;;;;;;4954939;29;20459;-81
2022/08/27 11:52:23;;;;;;;9.93;8.67;;;25.10;1.00;;;;;;4955089;29;20947;-82
2022/08/27 11:54:57;;;;;;;11.10;7.83;;;25.00;1.00;;;;;;4953663;28;20484;-81
2022/08/27 11:57:29;;;;;;;11.30;8.93;;;25.00;1.00;;;;;;4954412;28;20456;-82
2022/08/27 11:59:57;;;;;;;10.23;8.83;;;25.00;1.00;;;;;;4954547;29;20464;-81
2022/08/27 12:02:28;;;;;;;11.13;10.00;;;25.00;1.00;;;;;;4939969;29;21074;-82
2022/08/27 12:05:08;;;;;;;9.07;8.17;;;25.00;1.00;;;;;;4954055;28;20484;-82
2022/08/27 12:07:40;;;;;;;9.40;8.50;;;25.00;1.00;;;;;;4954954;29;20455;-82
2022/08/27 12:10:32;;;;;;;11.33;9.30;;;25.10;1.00;;;;;;4954559;28;20482;-81
2022/08/27 12:13:17;;;;;;;9.23;8.33;;;25.10;7.50;;;;;;4938277;29;20460;-82
2022/08/27 12:15:56;;;;;;;9.53;8.60;;;25.20;53.10;;;;;;4952745;28;20471;-82
2022/08/27 12:18:53;;;;;;;9.90;8.93;;;25.20;98.00;;;;;;4953882;28;20534;-83
2022/08/27 12:21:30;;;;;;;11.10;9.93;;;25.20;99.90;;;;;;4949849;29;20554;-83
2022/08/27 12:24:41;;;;;;;9.30;8.40;;;25.20;99.90;;;;;;4942409;28;20436;-80
2022/08/27 12:27:28;;;;;;;11.60;9.10;;;25.20;99.90;;;;;;4941474;29;20487;-83
2022/08/27 12:29:58;;;;;;;13.70;10.20;;;25.20;99.90;;;;;;4940990;29;20905;-83
2022/08/27 12:32:31;;;;;;;8.23;7.43;;;25.20;99.90;;;;;;4953188;29;20448;-82
2022/08/27 12:35:04;;;;;;;13.53;10.83;;;25.20;99.90;;;;;;4953421;28;20457;-82
2022/08/27 12:37:37;;;;;;;12.57;11.27;;;25.30;1.00;;;;;;4953616;28;20534;-81
2022/08/27 12:40:13;;;;;;;10.80;8.97;;;25.30;82.50;;;;;;4953942;29;20856;-82
2022/08/27 12:42:43;;;;;;;10.80;9.80;;;25.30;99.90;;;;;;4953919;29;20479;-82
2022/08/27 12:45:19;;;;;;;12.13;10.60;;;25.30;99.90;;;;;;4952581;28;21014;-82
2022/08/27 12:47:48;;;;;;;11.73;9.30;;;25.30;1.00;;;;;;4953120;29;20463;-82
2022/08/27 12:50:25;;;;;;;14.17;12.77;;;25.30;1.00;;;;;;4953333;29;20959;-82
2022/08/27 12:53:22;;;;;;;12.27;10.57;;;25.30;1.00;;;;;;4953541;29;20970;-82
2022/08/27 12:56:12;;;;;;;11.73;10.53;;;25.40;1.00;;;;;;4953429;28;20483;-82
2022/08/27 12:58:50;;;;;;;11.43;10.23;;;25.40;1.00;;;;;;4952927;28;20955;-82
2022/08/27 13:01:31;;;;;;;10.60;8.80;;;25.40;1.00;;;;;;4953788;29;20463;-82
2022/08/27 13:04:00;;;;;;;12.10;10.40;;;25.30;1.00;;;;;;4949485;28;20439;-81
2022/08/27 13:06:31;;;;;;;9.73;8.73;;;25.40;1.00;;;;;;4953017;29;20944;-82